Time;durP1;ratioP1;P1;durP2;ratioP2;P2;SDS_P1;SDS_P2;PMS_P1;PMS_P2;Temp;Humidity;BMP_temperature;BMP_pressure;BME280_temperature;BME280_humidity;BME280_pressure;Samples;Min_cycle;Max_cycle;Signal;HPM_P1;HPM_P2
2023/01/03 00:00:12;;;;;;;15.50;8.90;;;;;;;7.82;100.00;99861.80;104580;1294;24267;-34
2023/01/03 00:02:38;;;;;;;16.60;8.00;;;;;;;7.86;100.00;99859.89;104724;1294;22800;-35
2023/01/03 00:05:04;;;;;;;12.80;8.50;;;;;;;7.97;100.00;99854.02;104563;1296;22706;-32
2023/01/03 00:10:01;;;;;;;11.30;6.00;;;;;;;8.00;100.00;99860.71;104666;1293;23039;-35
2023/01/03 00:12:28;;;;;;;12.00;5.70;;;;;;;8.05;100.00;99861.14;104736;1293;22630;-31
2023/01/03 00:14:54;;;;;;;12.20;5.90;;;;;;;8.16;99.81;99860.09;104644;1303;24532;-35
2023/01/03 00:17:20;;;;;;;5.70;4.10;;;;;;;8.18;99.37;99860.75;104653;1294;23042;-31
2023/01/03 00:19:47;;;;;;;9.60;4.90;;;;;;;8.28;98.85;99863.98;104556;1294;22833;-32
2023/01/03 00:22:14;;;;;;;8.70;5.50;;;;;;;8.39;97.91;99860.44;104653;1296;23179;-32
2023/01/03 00:24:40;;;;;;;7.80;4.50;;;;;;;8.46;97.21;99868.45;104711;1299;23239;-31
2023/01/03 00:27:06;;;;;;;10.00;3.40;;;;;;;8.45;96.64;99870.30;104637;1294;23163;-31
2023/01/03 00:29:32;;;;;;;11.40;4.50;;;;;;;8.59;95.94;99874.52;104541;1301;22654;-34
2023/01/03 00:31:58;;;;;;;4.10;3.10;;;;;;;8.72;94.66;99873.30;104587;1294;23175;-35
2023/01/03 00:34:23;;;;;;;4.20;2.70;;;;;;;8.80;93.68;99872.30;104642;1303;24289;-32
2023/01/03 00:36:49;;;;;;;10.60;4.70;;;;;;;8.93;92.82;99880.68;104668;1294;23145;-32
2023/01/03 00:39:15;;;;;;;6.80;5.20;;;;;;;9.04;92.01;99882.58;104399;1303;23044;-35
2023/01/03 00:41:41;;;;;;;6.00;3.20;;;;;;;9.06;91.81;99891.84;104612;1294;24325;-35
2023/01/03 00:44:07;;;;;;;8.40;3.60;;;;;;;9.15;91.31;99891.74;104537;1294;23284;-35
2023/01/03 00:46:33;;;;;;;6.80;2.40;;;;;;;9.15;90.81;99890.96;104761;1293;23157;-36
2023/01/03 00:48:59;;;;;;;9.90;2.70;;;;;;;9.27;90.15;99895.45;104694;1301;22825;-31
2023/01/03 00:51:27;;;;;;;7.40;3.50;;;;;;;9.33;89.69;99904.02;104541;1303;24452;-35
2023/01/03 00:53:54;;;;;;;5.30;2.50;;;;;;;9.37;89.54;99912.05;104684;1294;23008;-32
2023/01/03 00:56:21;;;;;;;3.90;1.90;;;;;;;9.41;89.29;99914.48;104592;1303;23018;-32
2023/01/03 00:58:47;;;;;;;7.40;3.00;;;;;;;9.54;88.55;99920.97;104735;1294;24434;-31
2023/01/03 01:01:22;;;;;;;4.50;2.80;;;;;;;9.62;88.04;99919.27;104624;1294;23180;-35
2023/01/03 01:03:52;;;;;;;9.60;2.10;;;;;;;9.97;85.93;99926.74;104525;1303;22630;-30
2023/01/03 01:06:21;;;;;;;5.60;2.80;;;;;;;10.29;83.88;99921.48;104589;1294;22633;-35
2023/01/03 01:08:47;;;;;;;10.60;2.50;;;;;;;10.45;82.58;99939.59;104562;1303;22976;-31
2023/01/03 01:11:13;;;;;;;6.00;2.20;;;;;;;10.45;82.56;99943.51;104585;1303;22546;-35
2023/01/03 01:13:39;;;;;;;5.70;2.70;;;;;;;10.52;81.93;99948.88;104691;1292;22666;-32
2023/01/03 01:16:10;;;;;;;5.20;3.70;;;;;;;10.64;81.27;99952.25;104598;1294;22788;-35
2023/01/03 01:18:37;;;;;;;2.90;2.60;;;;;;;10.84;80.26;99954.70;104568;1294;22669;-31
2023/01/03 01:21:07;;;;;;;7.30;4.80;;;;;;;10.77;80.06;99952.19;104560;1303;23036;-35
2023/01/03 01:23:37;;;;;;;10.30;3.70;;;;;;;10.66;81.16;99957.59;104614;1303;22809;-35
2023/01/03 01:26:03;;;;;;;5.40;4.00;;;;;;;10.38;82.73;99963.06;104489;1297;22796;-35
2023/01/03 01:28:29;;;;;;;5.50;4.10;;;;;;;10.45;83.35;99961.23;104653;1296;24292;-32
2023/01/03 01:31:03;;;;;;;5.60;3.20;;;;;;;10.46;83.37;99973.77;104626;1300;22800;-31
2023/01/03 01:33:30;;;;;;;5.20;2.20;;;;;;;10.45;83.31;99977.78;104393;1297;22801;-34
2023/01/03 01:35:56;;;;;;;5.40;1.80;;;;;;;10.37;83.54;99965.31;104586;1303;24307;-32
2023/01/03 01:38:22;;;;;;;3.00;2.50;;;;;;;10.12;84.68;99974.54;104658;1303;22631;-31
2023/01/03 01:40:47;;;;;;;5.20;2.10;;;;;;;10.00;86.03;99976.13;104617;1294;22794;-30
2023/01/03 01:45:45;;;;;;;3.90;2.30;;;;;;;9.98;86.40;99983.11;104698;1292;24253;-35
2023/01/03 01:48:11;;;;;;;3.90;1.90;;;;;;;10.06;86.17;99987.90;104603;1294;22759;-35
2023/01/03 01:50:39;;;;;;;4.40;2.70;;;;;;;9.89;86.80;99995.41;104610;1295;22654;-31
2023/01/03 01:53:14;;;;;;;2.80;2.10;;;;;;;9.91;86.86;99995.07;104644;1292;22566;-35
2023/01/03 01:55:54;;;;;;;10.80;3.30;;;;;;;9.77;87.72;100003.79;104734;1300;22669;-31
2023/01/03 01:58:21;;;;;;;4.00;2.80;;;;;;;9.71;88.08;100008.27;104552;1292;24280;-35
2023/01/03 02:00:46;;;;;;;4.90;3.00;;;;;;;9.50;89.57;100010.83;104502;1301;24281;-31
2023/01/03 02:03:12;;;;;;;2.20;1.60;;;;;;;9.49;89.76;100023.63;104660;1300;23200;-30
2023/01/03 02:05:41;;;;;;;4.90;3.60;;;;;;;9.29;91.13;100030.37;104560;1294;23008;-35
2023/01/03 02:08:07;;;;;;;5.70;3.40;;;;;;;9.04;92.87;100040.86;104662;1303;25315;-31
2023/01/03 02:10:50;;;;;;;9.30;2.50;;;;;;;9.13;93.24;100040.36;104677;1291;22564;-36
2023/01/03 02:13:32;;;;;;;3.30;2.00;;;;;;;9.22;92.04;100046.88;104587;1296;22675;-35
2023/01/03 02:16:18;;;;;;;2.30;2.10;;;;;;;9.07;92.57;100044.27;104598;1303;22796;-31
2023/01/03 02:19:01;;;;;;;1.90;1.30;;;;;;;9.18;92.03;100046.75;104577;1294;23038;-35
2023/01/03 02:22:01;;;;;;;2.30;1.00;;;;;;;9.20;91.94;100049.77;104772;1299;23012;-36
2023/01/03 02:24:47;;;;;;;2.80;1.70;;;;;;;9.33;91.10;100052.27;104695;1292;22667;-31
2023/01/03 02:27:43;;;;;;;3.60;1.80;;;;;;;9.40;90.84;100052.39;104536;1303;23029;-31
2023/01/03 02:30:27;;;;;;;5.80;3.40;;;;;;;9.08;91.86;100057.94;104602;1294;23184;-31
2023/01/03 02:33:09;;;;;;;2.10;1.40;;;;;;;9.08;92.05;100059.64;104497;1301;23047;-35
2023/01/03 02:35:55;;;;;;;1.90;0.70;;;;;;;9.09;91.80;100063.35;104576;1289;22584;-31
2023/01/03 02:38:44;;;;;;;4.40;2.00;;;;;;;9.19;91.62;100065.64;104690;1294;22563;-34
2023/01/03 02:41:19;;;;;;;4.60;2.00;;;;;;;9.42;90.16;100061.77;104594;1294;22809;-33
2023/01/03 02:43:53;;;;;;;1.30;1.00;;;;;;;9.12;91.12;100071.52;104605;1294;22939;-34
2023/01/03 02:46:32;;;;;;;2.30;1.20;;;;;;;9.02;92.13;100078.44;104664;1303;24316;-33
2023/01/03 02:49:15;;;;;;;3.10;1.20;;;;;;;8.78;93.10;100078.20;104636;1303;24310;-33
2023/01/03 02:51:46;;;;;;;2.60;2.10;;;;;;;8.65;94.69;100079.00;104729;1300;22549;-34
2023/01/03 02:54:14;;;;;;;5.30;2.20;;;;;;;8.52;95.85;100080.54;104612;1296;22771;-30
2023/01/03 02:56:47;;;;;;;1.40;1.20;;;;;;;8.40;96.45;100087.80;104687;1294;22949;-30
2023/01/03 02:59:14;;;;;;;2.00;1.40;;;;;;;8.25;97.95;100094.83;104571;1291;24253;-30
2023/01/03 03:01:43;;;;;;;1.00;0.90;;;;;;;8.22;98.96;100097.92;104521;1292;24319;-35
2023/01/03 03:04:11;;;;;;;3.40;1.90;;;;;;;8.18;99.84;100103.92;104735;1294;23003;-31
2023/01/03 03:06:53;;;;;;;3.20;2.00;;;;;;;8.05;100.00;100109.59;104663;1294;22802;-30
2023/01/03 03:09:19;;;;;;;2.70;1.10;;;;;;;7.88;100.00;100100.81;104648;1303;22677;-31
2023/01/03 03:14:26;;;;;;;0.90;0.30;;;;;;;7.67;100.00;100098.39;104747;1300;22659;-35
2023/01/03 03:16:53;;;;;;;3.30;1.40;;;;;;;7.50;100.00;100103.75;104732;1303;23032;-31
2023/01/03 03:26:57;;;;;;;2.10;0.70;;;;;;;7.33;100.00;100133.30;104587;1292;22566;-28
2023/01/03 03:29:23;;;;;;;4.00;1.90;;;;;;;7.21;100.00;100134.25;104663;1303;22655;-29
2023/01/03 03:31:49;;;;;;;3.70;1.80;;;;;;;7.21;100.00;100145.61;104582;1303;23167;-28
2023/01/03 03:34:18;;;;;;;1.10;0.50;;;;;;;7.13;100.00;100149.98;104496;1302;22561;-29
2023/01/03 03:36:59;;;;;;;4.00;2.00;;;;;;;6.96;100.00;100157.17;104711;1301;22791;-36
2023/01/03 03:47:12;;;;;;;5.70;2.30;;;;;;;7.08;100.00;100162.62;104506;1294;22800;-29
2023/01/03 03:49:38;;;;;;;3.40;1.90;;;;;;;7.04;100.00;100163.55;104550;1301;23054;-33
2023/01/03 03:52:10;;;;;;;3.80;1.90;;;;;;;7.02;100.00;100168.88;104643;1300;22877;-29
2023/01/03 03:54:37;;;;;;;8.00;2.70;;;;;;;6.85;100.00;100173.60;104516;1303;24307;-33
2023/01/03 03:57:18;;;;;;;3.90;2.50;;;;;;;6.81;100.00;100171.89;104741;1294;22692;-29
2023/01/03 03:59:45;;;;;;;3.00;1.70;;;;;;;6.75;100.00;100177.85;104594;1292;22615;-33
2023/01/03 04:02:11;;;;;;;5.10;3.40;;;;;;;6.84;100.00;100177.30;104612;1301;22874;-30
2023/01/03 04:04:39;;;;;;;3.10;2.00;;;;;;;6.92;100.00;100183.95;104662;1292;23180;-29
2023/01/03 04:07:05;;;;;;;4.00;2.50;;;;;;;7.03;100.00;100186.84;104683;1300;23040;-29
2023/01/03 04:09:31;;;;;;;2.10;1.00;;;;;;;7.09;100.00;100190.46;104614;1289;22948;-29
2023/01/03 04:11:57;;;;;;;3.70;1.70;;;;;;;7.11;100.00;100187.45;104514;1303;22709;-30
2023/01/03 04:14:22;;;;;;;3.80;1.90;;;;;;;7.22;100.00;100196.05;104788;1297;22895;-29
2023/01/03 04:16:48;;;;;;;4.90;2.70;;;;;;;7.18;100.00;100189.73;104555;1301;22646;-33
2023/01/03 04:19:14;;;;;;;6.10;1.60;;;;;;;7.12;100.00;100187.11;104644;1292;24429;-30
2023/01/03 04:21:40;;;;;;;5.20;3.60;;;;;;;7.13;100.00;100191.36;104580;1292;22668;-30
2023/01/03 04:24:06;;;;;;;3.90;2.90;;;;;;;7.24;100.00;100196.56;104586;1292;23043;-30
2023/01/03 04:26:32;;;;;;;4.40;2.50;;;;;;;7.23;100.00;100203.05;104678;1302;22825;-31
2023/01/03 04:28:57;;;;;;;5.40;3.00;;;;;;;7.30;100.00;100211.09;104682;1301;22673;-30
2023/01/03 04:31:23;;;;;;;10.50;4.00;;;;;;;7.39;100.00;100215.61;104610;1300;23083;-30
2023/01/03 04:33:49;;;;;;;3.40;1.90;;;;;;;7.37;100.00;100214.50;104673;1303;23008;-30
2023/01/03 04:36:17;;;;;;;5.30;3.90;;;;;;;7.44;100.00;100212.40;104722;1303;23048;-32
2023/01/03 05:16:08;;;;;;;7.00;5.10;;;;;;;7.40;100.00;100254.27;104370;1305;557678;-33
2023/01/03 05:18:34;;;;;;;4.10;2.70;;;;;;;7.35;100.00;100261.34;104103;1298;447723;-30
2023/01/03 05:26:19;;;;;;;2.60;1.30;;;;;;;7.62;100.00;100264.36;104603;1304;23029;-34
2023/01/03 05:28:47;;;;;;;4.80;3.20;;;;;;;7.71;100.00;100262.84;104544;1294;24318;-34
2023/01/03 05:31:12;;;;;;;3.80;2.40;;;;;;;7.70;100.00;100266.25;104707;1294;22802;-30
2023/01/03 05:33:39;;;;;;;8.00;3.00;;;;;;;7.65;100.00;100263.98;104576;1291;22781;-30
2023/01/03 05:36:05;;;;;;;5.90;2.40;;;;;;;7.63;100.00;100268.14;104546;1291;22689;-33
2023/01/03 05:38:32;;;;;;;2.70;1.40;;;;;;;7.64;100.00;100265.60;104393;1300;22680;-34
2023/01/03 05:40:58;;;;;;;4.80;3.10;;;;;;;7.65;100.00;100267.79;104640;1301;23019;-30
2023/01/03 05:43:24;;;;;;;2.10;1.30;;;;;;;7.77;100.00;100265.86;104497;1294;22669;-35
2023/01/03 05:45:51;;;;;;;1.90;1.10;;;;;;;7.66;100.00;100267.33;104636;1293;22667;-32
2023/01/03 05:48:17;;;;;;;3.70;1.90;;;;;;;7.83;100.00;100263.83;104577;1304;22658;-29
2023/01/03 05:50:44;;;;;;;3.90;2.00;;;;;;;7.82;100.00;100258.05;104625;1294;22678;-33
2023/01/03 05:53:09;;;;;;;3.70;2.00;;;;;;;7.82;100.00;100267.17;104543;1294;22757;-33
2023/01/03 05:55:38;;;;;;;4.30;2.40;;;;;;;7.74;100.00;100275.59;104494;1294;22634;-29
2023/01/03 05:58:04;;;;;;;9.80;3.50;;;;;;;7.59;100.00;100279.60;104524;1294;22802;-33
2023/01/03 06:00:30;;;;;;;2.80;1.30;;;;;;;7.57;100.00;100279.09;104551;1304;23029;-32
2023/01/03 06:02:57;;;;;;;2.40;1.60;;;;;;;7.79;100.00;100279.40;104529;1294;22766;-33
2023/01/03 06:05:22;;;;;;;2.00;1.30;;;;;;;7.74;100.00;100282.92;104631;1293;24427;-33
2023/01/03 06:07:48;;;;;;;2.90;1.80;;;;;;;7.57;100.00;100292.99;104514;1304;23168;-30
2023/01/03 06:10:14;;;;;;;1.20;0.80;;;;;;;7.57;100.00;100291.76;104527;1294;22666;-30
2023/01/03 06:12:40;;;;;;;5.50;2.50;;;;;;;7.60;100.00;100292.14;104519;1294;22803;-29
2023/01/03 06:15:06;;;;;;;6.70;2.10;;;;;;;7.64;100.00;100294.42;104453;1294;22818;-29
2023/01/03 06:20:01;;;;;;;3.00;1.30;;;;;;;7.36;100.00;100299.44;104656;1304;22744;-30
2023/01/03 06:22:27;;;;;;;3.30;1.10;;;;;;;7.53;100.00;100293.27;104468;1294;24305;-34
2023/01/03 06:24:53;;;;;;;4.20;1.40;;;;;;;7.41;100.00;100299.45;104533;1294;23042;-34
2023/01/03 06:27:19;;;;;;;2.90;1.80;;;;;;;7.37;100.00;100301.45;104501;1294;22665;-34
2023/01/03 06:29:45;;;;;;;2.20;1.00;;;;;;;7.52;100.00;100310.05;104595;1294;22887;-34
2023/01/03 06:32:11;;;;;;;3.90;1.80;;;;;;;7.44;100.00;100313.56;104492;1295;22949;-34
2023/01/03 06:34:37;;;;;;;1.60;0.80;;;;;;;7.52;100.00;100317.81;104501;1294;22657;-30
2023/01/03 06:37:02;;;;;;;4.30;1.20;;;;;;;7.64;100.00;100322.95;104464;1304;22811;-30
2023/01/03 06:39:28;;;;;;;5.60;1.10;;;;;;;7.45;100.00;100324.39;104638;1300;22962;-30
2023/01/03 06:41:54;;;;;;;7.60;1.80;;;;;;;7.44;100.00;100332.61;104474;1304;22937;-34
2023/01/03 06:44:20;;;;;;;1.70;0.70;;;;;;;7.57;100.00;100332.73;104551;1294;22832;-30
2023/01/03 06:54:28;;;;;;;4.60;1.80;;;;;;;7.41;100.00;100350.05;104527;1294;22807;-35
2023/01/03 06:56:54;;;;;;;8.10;1.50;;;;;;;7.35;100.00;100354.17;104561;1294;22684;-34
2023/01/03 06:59:20;;;;;;;1.00;0.40;;;;;;;7.37;100.00;100355.80;104530;1304;22674;-30
2023/01/03 07:01:46;;;;;;;3.20;0.90;;;;;;;7.41;100.00;100365.39;104425;1294;23169;-34
2023/01/03 07:04:12;;;;;;;2.40;1.40;;;;;;;7.51;100.00;100366.39;104457;1305;26521;-34
2023/01/03 07:06:38;;;;;;;1.20;1.00;;;;;;;7.35;100.00;100367.97;104579;1285;22658;-30
2023/01/03 07:09:04;;;;;;;1.10;0.80;;;;;;;7.48;100.00;100366.79;104591;1291;24436;-34
2023/01/03 07:11:30;;;;;;;7.00;2.80;;;;;;;7.44;100.00;100369.77;104502;1294;22559;-34
2023/01/03 07:13:57;;;;;;;3.10;1.00;;;;;;;7.50;100.00;100369.65;104513;1285;23289;-34
2023/01/03 07:16:25;;;;;;;4.10;2.20;;;;;;;7.46;100.00;100378.23;104568;1304;22562;-30
2023/01/03 07:18:51;;;;;;;2.80;1.00;;;;;;;7.53;100.00;100381.64;104543;1304;22639;-32
2023/01/03 07:21:16;;;;;;;1.10;0.70;;;;;;;7.49;100.00;100381.64;104489;1294;22682;-34
2023/01/03 07:23:42;;;;;;;1.50;1.20;;;;;;;7.52;100.00;100388.00;104504;1304;23038;-34
2023/01/03 07:26:08;;;;;;;4.20;0.90;;;;;;;7.65;100.00;100392.02;104515;1294;22806;-33
2023/01/03 07:28:34;;;;;;;3.20;1.10;;;;;;;7.52;100.00;100395.66;104422;1293;22798;-33
2023/01/03 07:31:01;;;;;;;3.00;1.60;;;;;;;7.46;100.00;100402.26;104440;1294;22675;-30
2023/01/03 07:33:27;;;;;;;2.60;1.10;;;;;;;7.57;100.00;100402.20;104591;1291;22674;-34
2023/01/03 07:36:01;;;;;;;5.50;2.20;;;;;;;7.71;100.00;100407.87;104595;1294;23047;-30
2023/01/03 07:38:27;;;;;;;2.10;1.40;;;;;;;7.61;100.00;100413.97;104432;1301;23087;-34
2023/01/03 07:40:59;;;;;;;3.40;1.20;;;;;;;7.71;100.00;100420.17;104532;1304;22836;-34
2023/01/03 07:45:55;;;;;;;2.30;1.10;;;;;;;7.61;100.00;100424.89;104527;1294;24279;-31
2023/01/03 07:48:21;;;;;;;2.50;1.10;;;;;;;7.73;100.00;100426.84;104602;1294;22812;-32
2023/01/03 07:50:46;;;;;;;1.40;1.10;;;;;;;7.83;100.00;100433.52;104642;1294;22875;-30
2023/01/03 07:53:15;;;;;;;8.90;3.10;;;;;;;7.80;100.00;100433.52;104599;1294;23032;-30
2023/01/03 07:55:41;;;;;;;1.40;0.90;;;;;;;7.67;100.00;100436.59;104567;1294;23159;-34
2023/01/03 07:58:07;;;;;;;1.10;0.90;;;;;;;7.80;100.00;100430.83;104686;1291;24422;-30
2023/01/03 08:00:33;;;;;;;1.00;0.80;;;;;;;7.87;100.00;100432.93;104587;1294;22679;-30
2023/01/03 08:02:58;;;;;;;5.20;0.80;;;;;;;7.84;100.00;100434.34;104574;1304;24775;-30
2023/01/03 08:05:24;;;;;;;2.40;1.90;;;;;;;7.77;100.00;100439.32;104630;1304;22649;-34
2023/01/03 08:07:50;;;;;;;1.00;0.70;;;;;;;7.76;100.00;100435.86;104534;1298;22806;-34
2023/01/03 08:15:15;;;;;;;2.20;1.30;;;;;;;7.66;100.00;100435.98;104559;1285;22815;-33
2023/01/03 08:17:41;;;;;;;6.90;1.70;;;;;;;7.82;100.00;100436.09;104559;1304;23976;-32
2023/01/03 08:20:07;;;;;;;2.40;1.10;;;;;;;7.87;100.00;100433.52;104440;1301;22576;-29
2023/01/03 08:22:34;;;;;;;2.20;1.10;;;;;;;8.07;100.00;100438.94;104538;1304;24473;-33
2023/01/03 08:24:59;;;;;;;1.20;0.80;;;;;;;7.98;100.00;100435.45;104496;1295;22787;-29
2023/01/03 08:27:25;;;;;;;2.10;1.40;;;;;;;8.17;99.54;100434.60;104556;1294;23163;-34
2023/01/03 08:29:51;;;;;;;4.80;1.10;;;;;;;8.12;98.75;100439.91;104517;1294;22816;-34
2023/01/03 08:32:17;;;;;;;3.40;1.90;;;;;;;7.86;100.00;100440.96;104568;1301;22801;-29
2023/01/03 08:34:43;;;;;;;1.80;1.60;;;;;;;7.88;99.92;100446.21;104617;1302;22941;-34
2023/01/03 08:37:09;;;;;;;2.80;1.90;;;;;;;7.95;99.88;100448.94;104485;1295;22615;-30
2023/01/03 08:39:41;;;;;;;4.60;1.40;;;;;;;7.86;99.94;100451.27;104535;1300;22754;-34
2023/01/03 08:42:07;;;;;;;6.80;2.40;;;;;;;7.86;100.00;100454.08;104442;1304;22665;-34
2023/01/03 08:44:33;;;;;;;1.90;1.40;;;;;;;7.91;99.64;100449.85;104530;1294;22641;-32
2023/01/03 08:46:59;;;;;;;1.80;1.20;;;;;;;8.13;98.14;100454.21;104603;1295;22793;-36
2023/01/03 08:49:25;;;;;;;1.00;0.70;;;;;;;7.92;98.32;100456.16;104581;1295;22817;-33
2023/01/03 08:51:51;;;;;;;1.20;0.90;;;;;;;7.93;98.32;100461.80;104609;1301;22725;-34
2023/01/03 08:54:16;;;;;;;0.60;0.50;;;;;;;7.84;99.62;100463.02;104464;1291;22601;-30
2023/01/03 08:56:42;;;;;;;2.00;1.70;;;;;;;8.03;98.88;100462.19;104533;1304;22807;-29
2023/01/03 08:59:08;;;;;;;5.30;1.40;;;;;;;7.96;97.94;100464.67;104484;1284;22682;-30
2023/01/03 09:01:34;;;;;;;2.50;1.90;;;;;;;7.89;98.83;100462.23;104674;1285;22997;-30
2023/01/03 09:04:00;;;;;;;1.90;1.50;;;;;;;7.95;97.78;100464.04;104503;1288;22796;-34
2023/01/03 09:06:26;;;;;;;3.40;3.00;;;;;;;7.96;98.30;100476.13;104535;1298;23011;-32
2023/01/03 09:08:51;;;;;;;3.30;2.70;;;;;;;7.85;99.16;100479.10;104597;1294;24319;-34
2023/01/03 09:11:17;;;;;;;2.30;1.20;;;;;;;7.82;99.21;100487.70;104422;1304;22662;-35
2023/01/03 09:13:43;;;;;;;2.90;2.40;;;;;;;7.84;99.12;100492.14;104629;1296;22949;-34
2023/01/03 09:16:10;;;;;;;4.00;1.70;;;;;;;7.73;99.70;100491.56;104490;1304;23450;-34
2023/01/03 09:18:36;;;;;;;9.50;2.80;;;;;;;7.86;99.22;100489.98;104554;1294;22842;-35
2023/01/03 09:21:02;;;;;;;2.40;1.70;;;;;;;7.78;97.58;100488.77;104575;1298;22799;-34
2023/01/03 09:23:29;;;;;;;6.90;3.20;;;;;;;7.91;98.51;100492.70;104531;1294;22690;-31
2023/01/03 09:25:54;;;;;;;3.90;2.30;;;;;;;7.91;98.33;100495.68;104478;1304;23040;-31
2023/01/03 09:28:20;;;;;;;2.90;1.00;;;;;;;8.00;98.34;100493.08;104329;1297;22939;-36
2023/01/03 09:30:46;;;;;;;3.80;2.60;;;;;;;8.04;97.55;100493.36;104603;1294;23035;-34
2023/01/03 09:33:12;;;;;;;1.20;0.80;;;;;;;7.97;97.29;100499.18;104529;1294;23194;-30
2023/01/03 09:35:38;;;;;;;1.80;1.20;;;;;;;7.91;96.98;100493.69;104479;1295;22791;-30
2023/01/03 09:38:03;;;;;;;1.30;1.20;;;;;;;7.89;96.18;100496.27;104162;1290;23166;-34
2023/01/03 09:40:30;;;;;;;2.40;1.60;;;;;;;8.03;94.33;100499.71;104644;1288;22674;-34
2023/01/03 09:45:31;;;;;;;4.00;1.40;;;;;;;7.96;93.55;100498.80;104546;1305;23044;-30
2023/01/03 09:47:57;;;;;;;1.40;1.20;;;;;;;8.00;94.09;100494.63;104539;1294;23035;-30
2023/01/03 09:50:25;;;;;;;4.40;2.60;;;;;;;8.11;92.36;100494.77;104434;1304;24804;-34
2023/01/03 10:06:00;;;;;;;3.50;1.90;;;;;;;7.99;93.55;100497.73;104494;1304;22657;-30
2023/01/03 10:08:49;;;;;;;8.50;1.00;;;;;;;7.80;94.29;100506.08;104510;1298;22565;-30
2023/01/03 10:11:21;;;;;;;3.20;1.80;;;;;;;7.72;95.38;100503.85;104570;1301;22671;-31
2023/01/03 10:13:57;;;;;;;3.70;2.00;;;;;;;7.66;96.13;100509.88;104628;1294;23091;-29
2023/01/03 10:16:33;;;;;;;2.80;1.50;;;;;;;7.67;95.58;100511.64;104514;1294;22625;-31
2023/01/03 10:19:14;;;;;;;6.00;2.20;;;;;;;7.64;95.73;100518.19;104421;1294;22966;-34
2023/01/03 10:22:00;;;;;;;3.10;1.60;;;;;;;7.54;95.93;100513.43;104520;1286;22590;-35
2023/01/03 10:24:30;;;;;;;4.70;2.80;;;;;;;7.47;94.72;100510.73;104562;1305;24408;-36
2023/01/03 10:27:14;;;;;;;5.00;2.00;;;;;;;7.49;94.20;100514.28;104615;1297;22636;-35
2023/01/03 10:29:40;;;;;;;17.90;2.20;;;;;;;7.40;95.12;100516.31;104515;1294;24314;-35
2023/01/03 10:32:23;;;;;;;3.60;2.20;;;;;;;7.33;96.50;100515.86;104545;1294;22797;-32
2023/01/03 10:35:12;;;;;;;4.10;1.60;;;;;;;7.24;96.79;100511.31;104507;1294;22674;-31
2023/01/03 10:37:41;;;;;;;7.00;2.90;;;;;;;7.24;97.60;100517.59;104589;1304;24433;-35
2023/01/03 10:40:08;;;;;;;3.00;1.60;;;;;;;7.08;99.73;100513.80;104612;1298;23029;-31
2023/01/03 10:42:34;;;;;;;4.60;2.80;;;;;;;6.99;100.00;100512.27;104523;1305;22668;-31
2023/01/03 10:45:13;;;;;;;5.30;2.60;;;;;;;6.93;100.00;100511.23;104588;1304;22937;-31
2023/01/03 10:47:38;;;;;;;4.20;2.80;;;;;;;6.86;100.00;100510.19;104463;1294;23027;-31
2023/01/03 10:50:05;;;;;;;7.90;3.20;;;;;;;6.73;100.00;100520.80;104542;1304;22630;-34
2023/01/03 10:52:33;;;;;;;2.90;2.40;;;;;;;6.65;100.00;100518.02;104522;1302;22581;-35
2023/01/03 10:55:01;;;;;;;3.80;2.10;;;;;;;6.69;100.00;100519.73;104618;1294;22567;-31
2023/01/03 10:57:43;;;;;;;2.60;2.40;;;;;;;6.64;100.00;100520.20;104528;1294;22667;-32
2023/01/03 11:00:28;;;;;;;8.00;4.00;;;;;;;6.63;100.00;100519.25;104628;1295;22569;-35
2023/01/03 11:02:54;;;;;;;2.90;1.70;;;;;;;6.68;100.00;100517.77;104473;1298;23164;-35
2023/01/03 11:45:41;;;;;;;3.80;2.70;;;;;;;6.54;100.00;100507.13;104314;1303;557640;-31
2023/01/03 11:48:30;;;;;;;2.90;2.10;;;;;;;6.56;100.00;100514.73;104161;1295;428952;-33
2023/01/03 11:51:10;;;;;;;2.70;1.70;;;;;;;6.50;100.00;100515.61;104544;1294;23169;-34
2023/01/03 11:53:38;;;;;;;3.30;2.60;;;;;;;6.54;100.00;100517.09;104564;1289;23086;-30
2023/01/03 11:56:23;;;;;;;5.10;2.90;;;;;;;6.47;100.00;100513.60;104749;1289;22665;-30
2023/01/03 11:59:29;;;;;;;6.60;2.70;;;;;;;6.40;100.00;100509.86;104532;1295;22624;-34
2023/01/03 12:02:26;;;;;;;7.90;3.60;;;;;;;6.36;100.00;100507.94;104583;1293;22669;-34
2023/01/03 12:05:16;;;;;;;7.60;3.20;;;;;;;6.35;100.00;100504.61;104717;1294;23286;-29
2023/01/03 12:07:52;;;;;;;4.10;2.80;;;;;;;6.39;100.00;100509.39;104516;1293;23154;-30
2023/01/03 12:10:31;;;;;;;3.60;2.70;;;;;;;6.41;100.00;100513.63;104534;1301;22683;-30
2023/01/03 12:13:11;;;;;;;5.20;2.70;;;;;;;6.49;100.00;100514.18;104628;1293;24450;-31
2023/01/03 12:15:44;;;;;;;5.20;3.20;;;;;;;6.43;100.00;100517.73;104661;1295;22679;-36
2023/01/03 12:18:15;;;;;;;5.30;3.20;;;;;;;6.47;100.00;100517.76;104643;1303;25474;-31
2023/01/03 12:20:44;;;;;;;5.30;4.00;;;;;;;6.71;100.00;100518.33;104572;1292;23955;-31
2023/01/03 12:23:29;;;;;;;5.80;3.00;;;;;;;6.84;100.00;100517.64;104693;1294;22806;-35
2023/01/03 12:25:56;;;;;;;5.80;2.00;;;;;;;6.88;100.00;100515.00;104297;1297;22578;-35
2023/01/03 12:28:29;;;;;;;6.20;3.30;;;;;;;6.79;100.00;100519.34;104549;1291;23165;-35
2023/01/03 12:31:14;;;;;;;7.70;2.60;;;;;;;6.74;100.00;100514.64;104519;1291;25361;-31
2023/01/03 12:34:12;;;;;;;5.60;2.00;;;;;;;6.68;100.00;100508.50;104579;1303;24437;-31
2023/01/03 12:36:52;;;;;;;3.90;1.80;;;;;;;6.65;100.00;100506.09;104626;1303;22895;-35
2023/01/03 12:39:33;;;;;;;5.50;3.20;;;;;;;6.69;100.00;100501.30;104595;1303;22566;-32
2023/01/03 12:42:11;;;;;;;5.10;2.10;;;;;;;6.55;100.00;100502.38;104671;1303;23032;-32
2023/01/03 12:44:39;;;;;;;8.10;1.90;;;;;;;6.50;100.00;100497.69;104674;1293;23005;-32
2023/01/03 12:47:06;;;;;;;3.80;2.20;;;;;;;6.49;100.00;100496.71;104646;1303;24273;-31
2023/01/03 12:49:38;;;;;;;3.20;1.20;;;;;;;6.42;100.00;100498.49;104671;1290;23049;-31
2023/01/03 12:52:09;;;;;;;5.30;2.50;;;;;;;6.48;100.00;100493.98;104632;1293;22559;-31
2023/01/03 12:54:39;;;;;;;4.10;2.20;;;;;;;6.37;100.00;100497.81;104503;1291;24325;-29
2023/01/03 12:57:28;;;;;;;0.90;0.70;;;;;;;6.42;100.00;100499.00;104536;1294;22819;-35
2023/01/03 13:00:18;;;;;;;6.70;2.90;;;;;;;6.52;100.00;100498.95;104547;1294;22784;-31
2023/01/03 13:02:58;;;;;;;3.20;2.10;;;;;;;6.47;100.00;100504.05;104441;1294;23047;-31
2023/01/03 13:05:49;;;;;;;3.30;1.90;;;;;;;6.49;100.00;100502.75;104575;1288;23183;-31
2023/01/03 13:08:34;;;;;;;4.80;2.20;;;;;;;6.31;100.00;100500.92;104645;1294;23029;-33
2023/01/03 13:11:13;;;;;;;2.60;2.00;;;;;;;6.28;100.00;100496.55;104513;1287;23036;-29
2023/01/03 13:13:48;;;;;;;3.50;1.90;;;;;;;6.26;100.00;100495.98;104339;1303;24431;-35
2023/01/03 13:16:20;;;;;;;2.80;1.80;;;;;;;6.32;100.00;100500.14;104439;1297;22679;-35
2023/01/03 13:18:46;;;;;;;13.20;3.60;;;;;;;6.39;100.00;100500.16;104599;1293;23933;-35
2023/01/03 13:21:44;;;;;;;17.00;7.70;;;;;;;6.27;100.00;100498.77;104516;1303;23028;-31
2023/01/03 13:24:10;;;;;;;12.70;6.10;;;;;;;6.23;100.00;100496.36;104631;1294;22579;-31
2023/01/03 13:26:35;;;;;;;9.20;4.80;;;;;;;6.20;100.00;100497.81;104505;1294;22815;-31
2023/01/03 13:29:08;;;;;;;11.40;6.20;;;;;;;6.19;100.00;100494.33;104379;1297;23028;-34
2023/01/03 13:31:36;;;;;;;83.10;6.40;;;;;;;6.13;100.00;100498.52;104727;1303;22566;-30
2023/01/03 13:34:08;;;;;;;8.40;3.60;;;;;;;6.18;100.00;100494.14;104720;1296;22662;-34
2023/01/03 13:36:49;;;;;;;29.40;5.90;;;;;;;6.12;100.00;100495.73;104562;1303;25444;-30
2023/01/03 13:39:39;;;;;;;13.50;7.70;;;;;;;6.08;100.00;100495.69;104611;1294;25557;-34
2023/01/03 13:42:05;;;;;;;34.00;9.80;;;;;;;6.14;100.00;100500.66;104537;1291;22567;-37
2023/01/03 13:44:31;;;;;;;59.30;23.70;;;;;;;6.13;100.00;100503.32;104594;1304;22867;-35
2023/01/03 13:46:56;;;;;;;63.10;25.00;;;;;;;6.22;100.00;100503.14;104526;1291;22787;-34
2023/01/03 13:49:23;;;;;;;110.60;42.40;;;;;;;6.28;100.00;100504.21;104548;1294;22824;-34
2023/01/03 13:51:51;;;;;;;82.40;33.70;;;;;;;6.56;100.00;100502.48;104688;1295;24339;-35